ADDS METAR Data INFO
IDs: Format: Raw Decoded Include TAF

Data at: 0924 UTC 17 Oct 2017

KHII 170915Z AUTO 01006KT 10SM CLR 25/M12 A3002 RMK AO2
KHII 170855Z AUTO 02006KT 10SM FEW050 25/M12 A3003 RMK AO2
KHII 170835Z AUTO 36008KT 10SM FEW050 25/M13 A3003 RMK AO2
KHII 170815Z AUTO 36008KT 10SM CLR 25/M12 A3003 RMK AO2
KHII 170755Z AUTO 01008KT 10SM FEW048 25/M12 A3003 RMK AO2
KHII 170735Z AUTO 36009KT 10SM CLR 25/M12 A3003 RMK AO2
KHII 170715Z AUTO 35008KT 10SM CLR 25/M12 A3003 RMK AO2
KHII 170655Z AUTO 35009KT 10SM CLR 26/M13 A3003 RMK AO2
KHII 170635Z AUTO 35008KT 10SM CLR 27/M13 A3004 RMK AO2
KHII 170615Z AUTO 35008KT 10SM FEW048 27/M12 A3004 RMK AO2
KHII 170555Z AUTO 35007KT 10SM FEW048 26/M13 A3003 RMK AO2
KHII 170535Z AUTO 36008KT 10SM CLR 27/M12 A3003 RMK AO2
KHII 170515Z AUTO 36007KT 10SM FEW050 27/M12 A3003 RMK AO2
KHII 170455Z AUTO 01007KT 10SM CLR 27/M12 A3003 RMK AO2
KHII 170435Z AUTO 01006KT 10SM CLR 27/M12 A3002 RMK AO2
KHII 170415Z AUTO 34007KT 10SM CLR 27/M12 A3002 RMK AO2
KHII 170355Z AUTO 35005KT 10SM CLR 27/M12 A3002 RMK AO2
KHII 170335Z AUTO 34004KT 10SM CLR 28/M12 A3001 RMK AO2
KHII 170315Z AUTO 36003KT 10SM CLR 28/M13 A3001 RMK AO2
KHII 170255Z AUTO 00000KT 10SM CLR 29/M13 A3001 RMK AO2
KHII 170235Z AUTO 35004KT 10SM CLR 29/M13 A3001 RMK AO2
KHII 170215Z AUTO 02005KT 10SM CLR 29/M12 A3001 RMK AO2
KHII 170155Z AUTO 36005KT 10SM CLR 30/M12 A3000 RMK AO2
KHII 170135Z AUTO 34005KT 10SM CLR 30/M12 A3000 RMK AO2
KHII 170115Z AUTO 34007KT 10SM CLR 30/M12 A3000 RMK AO2
KHII 170055Z AUTO 33007KT 10SM CLR 32/M12 A2999 RMK AO2
KHII 170035Z AUTO 32009KT 10SM CLR 32/M11 A2999 RMK AO2
KHII 170015Z AUTO 32008KT 10SM CLR 33/M11 A3000 RMK AO2
KHII 162355Z AUTO 32008KT 10SM CLR 33/M10 A3000 RMK AO2
KHII 162335Z AUTO 33007KT 10SM CLR 33/M10 A3001 RMK AO2
KHII 162315Z AUTO 35006KT 10SM CLR 34/M10 A3002 RMK AO2
KHII 162255Z AUTO 31005KT 10SM CLR 33/M10 A3002 RMK AO2
KHII 162235Z AUTO 33005KT 10SM CLR 33/M11 A3003 RMK AO2
KHII 162215Z AUTO 33006KT 10SM CLR 33/M10 A3003 RMK AO2
KHII 162155Z AUTO 29006KT 10SM CLR 33/M10 A3004 RMK AO2
KHII 162135Z AUTO 34006KT 10SM CLR 33/M12 A3004 RMK AO2
KHII 162115Z AUTO 30008KT 10SM CLR 32/M12 A3005 RMK AO2
KHII 162055Z AUTO 33008G15KT 10SM CLR 32/M12 A3006 RMK AO2
KHII 162035Z AUTO 31012G16KT 10SM CLR 32/M12 A3007 RMK AO2
KHII 162015Z AUTO 31010KT 10SM CLR 31/M11 A3008 RMK AO2
KHII 161955Z AUTO 32008G14KT 10SM CLR 30/M11 A3009 RMK AO2
KHII 161935Z AUTO 31007KT 10SM CLR 30/M10 A3011 RMK AO2
KHII 161915Z AUTO 32006KT 10SM CLR 30/M10 A3011 RMK AO2
KHII 161855Z AUTO 32009KT 10SM CLR 29/M10 A3013 RMK AO2
KHII 161835Z AUTO 31010KT 10SM CLR 29/M11 A3014 RMK AO2
KHII 161815Z AUTO 31009KT 10SM CLR 28/M11 A3014 RMK AO2
KHII 161755Z AUTO 31009KT 10SM CLR 27/M11 A3015 RMK AO2
KHII 161735Z AUTO 32005KT 10SM CLR 27/M11 A3015 RMK AO2
KHII 161715Z AUTO 35008KT 10SM CLR 26/M11 A3016 RMK AO2
KHII 161655Z AUTO 34005KT 10SM CLR 25/M10 A3016 RMK AO2
KHII 161635Z AUTO 33007KT 10SM CLR 24/M10 A3017 RMK AO2
KHII 161615Z AUTO 27005KT 10SM CLR 22/M07 A3017 RMK AO2
KHII 161555Z AUTO 32008KT 10SM CLR 23/M11 A3016 RMK AO2
KHII 161535Z AUTO 32008KT 10SM CLR 22/M11 A3016 RMK AO2
KHII 161515Z AUTO 00000KT 10SM CLR 20/M09 A3016 RMK AO2
KHII 161455Z AUTO 00000KT 10SM CLR 18/M08 A3015 RMK AO2
KHII 161435Z AUTO 00000KT 10SM CLR 18/M09 A3014 RMK AO2
KHII 161415Z AUTO 00000KT 10SM CLR 18/M11 A3014 RMK AO2
KHII 161355Z AUTO 00000KT 10SM CLR 17/M11 A3014 RMK AO2
KHII 161335Z AUTO 00000KT 10SM CLR 18/M12 A3013 RMK AO2
KHII 161315Z AUTO 00000KT 10SM CLR 18/M12 A3013 RMK AO2
KHII 161255Z AUTO 00000KT 10SM CLR 18/M12 A3012 RMK AO2
KHII 161235Z AUTO 00000KT 10SM CLR 18/M12 A3012 RMK AO2
KHII 161215Z AUTO 14003KT 10SM CLR 18/M12 A3011 RMK AO2
KHII 161155Z AUTO 32003KT 10SM CLR 19/M12 A3010 RMK AO2
KHII 161135Z AUTO 32003KT 10SM CLR 19/M10 A3010 RMK AO2
KHII 161115Z AUTO 00000KT 10SM CLR 19/M10 A3010 RMK AO2
KHII 161055Z AUTO 00000KT 10SM CLR 19/M10 A3010 RMK AO2
KHII 161035Z AUTO 30004KT 10SM CLR 20/M12 A3010 RMK AO2
KHII 161015Z AUTO 02005KT 10SM CLR 22/M12 A3011 RMK AO2
KHII 160955Z AUTO 02005KT 10SM CLR 22/M12 A3011 RMK AO2
KHII 160935Z AUTO 02005KT 10SM CLR 22/M12 A3011 RMK AO2
KHII 160915Z AUTO 03006KT 10SM CLR 22/M12 A3011 RMK AO2
KHII 160855Z AUTO 01007KT 10SM CLR 22/M12 A3011 RMK AO2
KHII 160835Z AUTO 36006KT 10SM CLR 22/M12 A3011 RMK AO2
KHII 160815Z AUTO 36005KT 10SM CLR 22/M12 A3011 RMK AO2
KHII 160755Z AUTO 02007KT 10SM CLR 22/M12 A3011 RMK AO2
KHII 160735Z AUTO 02006KT 10SM FEW049 23/M12 A3011 RMK AO2
KHII 160715Z AUTO 03006KT 10SM CLR 23/M12 A3011 RMK AO2
KHII 160655Z AUTO 36006KT 10SM FEW047 23/M12 A3011 RMK AO2
KHII 160635Z AUTO 36006KT 10SM FEW049 24/M12 A3011 RMK AO2
KHII 160615Z AUTO 01006KT 10SM FEW049 24/M11 A3011 RMK AO2
KHII 160555Z AUTO 01008KT 10SM FEW049 24/M11 A3011 RMK AO2
KHII 160535Z AUTO 01006KT 10SM CLR 24/M11 A3011 RMK AO2
KHII 160515Z AUTO 01005KT 10SM CLR 24/M11 A3011 RMK AO2
KHII 160455Z AUTO 01005KT 10SM FEW047 24/M11 A3011 RMK AO2
KHII 160435Z AUTO 35008KT 10SM FEW047 25/M11 A3011 RMK AO2
KHII 160415Z AUTO 36007KT 10SM CLR 25/M10 A3010 RMK AO2
KHII 160355Z AUTO 35007KT 10SM CLR 25/M10 A3010 RMK AO2
KHII 160335Z AUTO 33007KT 10SM CLR 25/M10 A3010 RMK AO2
KHII 160315Z AUTO 34009KT 10SM CLR 26/M10 A3009 RMK AO2
KHII 160255Z AUTO 34006KT 10SM CLR 27/M10 A3009 RMK AO2
KHII 160235Z AUTO 33006KT 10SM CLR 27/M10 A3009 RMK AO2
KHII 160215Z AUTO 33008KT 10SM CLR 27/M10 A3009 RMK AO2
KHII 160155Z AUTO 35005KT 10SM CLR 26/M10 A3009 RMK AO2
KHII 160135Z AUTO 31006KT 10SM CLR 27/M10 A3008 RMK AO2
KHII 160115Z AUTO 31007KT 10SM CLR 28/M10 A3008 RMK AO2
KHII 160055Z AUTO 31009KT 10SM CLR 28/M10 A3007 RMK AO2
KHII 160035Z AUTO 31008KT 10SM CLR 29/M10 A3008 RMK AO2
KHII 160015Z AUTO 31011KT 10SM CLR 30/M10 A3008 RMK AO2
KHII 152355Z AUTO 32012KT 10SM CLR 30/M10 A3008 RMK AO2
KHII 152335Z AUTO 32012G22KT 10SM CLR 30/M10 A3008 RMK AO2
KHII 152315Z AUTO 32009KT 10SM CLR 30/M10 A3008 RMK AO2
KHII 152255Z AUTO 32012G18KT 10SM CLR 30/M10 A3009 RMK AO2
KHII 152235Z AUTO 31014KT 10SM CLR 30/M10 A3009 RMK AO2
KHII 152215Z AUTO 34011KT 10SM CLR 30/M10 A3010 RMK AO2
KHII 152155Z AUTO 31015G21KT 10SM CLR 30/M10 A3010 RMK AO2
KHII 152135Z AUTO 31016KT 10SM CLR 30/M10 A3011 RMK AO2